KAFN/AFN METAR and TAF weather

Enter ICAO airport designator
Station Type Date Time Source
KAFN METAR 2021/05/14 12:52 UTC NOAA

KAFN 141252Z AUTO VRB06KT 10SM CLR 18/01 A3020 RMK AO2 SLP233 T01780006


Station Type Date Time Source
KAFN Decoded METAR 2021/05/14 12:52 UTC NOAA

JAFFREY MUNI-SILVER RANCH, NH, United States (KAFN) 42-48N 72-00W 313M
May 14, 2021 - 08:52 AM EDT / 2021.05.14 1252 UTC
Wind: Variable at 7 MPH (6 KT):0
Visibility: 10 mile(s):0
Sky conditions: clear
Temperature: 64.0 F (17.8 C)
Dew Point: 33.1 F (0.6 C)
Relative Humidity: 31%
Pressure (altimeter): 30.2 in. Hg (1022 hPa)
ob: KAFN 141252Z AUTO VRB06KT 10SM CLR 18/01 A3020 RMK AO2 SLP233 T01780006
cycle: 13

Station Type Date Time Source
KAFN TAF UTC NOAA

Error!

Example: see airport list